sensor_id;sensor_type;location;lat;lon;timestamp;P1;durP1;ratioP1;P2;durP2;ratioP2
3718;SDS011;1875;52.492;6.860;2023-11-21T00:01:21;65.82;;;22.08;;
3718;SDS011;1875;52.492;6.860;2023-11-21T00:03:50;63.78;;;19.95;;
3718;SDS011;1875;52.492;6.860;2023-11-21T00:06:21;68.03;;;20.48;;
3718;SDS011;1875;52.492;6.860;2023-11-21T00:08:49;68.63;;;21.10;;
3718;SDS011;1875;52.492;6.860;2023-11-21T00:11:18;63.55;;;19.52;;
3718;SDS011;1875;52.492;6.860;2023-11-21T00:13:46;65.28;;;19.15;;
3718;SDS011;1875;52.492;6.860;2023-11-21T00:16:16;63.40;;;19.70;;
3718;SDS011;1875;52.492;6.860;2023-11-21T00:18:44;64.15;;;19.30;;
3718;SDS011;1875;52.492;6.860;2023-11-21T00:21:13;58.72;;;18.20;;
3718;SDS011;1875;52.492;6.860;2023-11-21T00:23:41;64.43;;;21.90;;
3718;SDS011;1875;52.492;6.860;2023-11-21T00:26:09;65.32;;;20.55;;
3718;SDS011;1875;52.492;6.860;2023-11-21T00:28:38;78.45;;;22.25;;
3718;SDS011;1875;52.492;6.860;2023-11-21T00:31:06;62.90;;;21.48;;
3718;SDS011;1875;52.492;6.860;2023-11-21T00:33:34;64.15;;;20.52;;
3718;SDS011;1875;52.492;6.860;2023-11-21T00:36:02;62.72;;;19.55;;
3718;SDS011;1875;52.492;6.860;2023-11-21T00:38:35;66.80;;;19.95;;
3718;SDS011;1875;52.492;6.860;2023-11-21T00:41:06;79.90;;;22.75;;
3718;SDS011;1875;52.492;6.860;2023-11-21T00:43:34;76.22;;;22.27;;
3718;SDS011;1875;52.492;6.860;2023-11-21T00:46:05;63.10;;;20.00;;
3718;SDS011;1875;52.492;6.860;2023-11-21T00:48:34;78.78;;;23.45;;
3718;SDS011;1875;52.492;6.860;2023-11-21T00:51:02;73.13;;;22.90;;
3718;SDS011;1875;52.492;6.860;2023-11-21T00:53:32;60.78;;;21.25;;
3718;SDS011;1875;52.492;6.860;2023-11-21T00:56:00;68.82;;;21.02;;
3718;SDS011;1875;52.492;6.860;2023-11-21T00:58:29;70.25;;;22.33;;
3718;SDS011;1875;52.492;6.860;2023-11-21T01:00:57;69.35;;;21.23;;
3718;SDS011;1875;52.492;6.860;2023-11-21T01:03:26;73.93;;;22.80;;
3718;SDS011;1875;52.492;6.860;2023-11-21T01:05:54;74.57;;;20.88;;
3718;SDS011;1875;52.492;6.860;2023-11-21T01:08:22;70.68;;;20.70;;
3718;SDS011;1875;52.492;6.860;2023-11-21T01:10:51;84.75;;;21.73;;
3718;SDS011;1875;52.492;6.860;2023-11-21T01:13:19;76.85;;;23.58;;
3718;SDS011;1875;52.492;6.860;2023-11-21T01:15:47;71.65;;;22.13;;
3718;SDS011;1875;52.492;6.860;2023-11-21T01:18:15;71.43;;;21.88;;
3718;SDS011;1875;52.492;6.860;2023-11-21T01:20:45;78.60;;;22.13;;
3718;SDS011;1875;52.492;6.860;2023-11-21T01:23:13;78.93;;;22.83;;
3718;SDS011;1875;52.492;6.860;2023-11-21T01:25:41;81.57;;;22.30;;
3718;SDS011;1875;52.492;6.860;2023-11-21T01:28:09;75.10;;;21.85;;
3718;SDS011;1875;52.492;6.860;2023-11-21T01:30:37;71.63;;;22.17;;
3718;SDS011;1875;52.492;6.860;2023-11-21T01:33:05;95.25;;;25.92;;
3718;SDS011;1875;52.492;6.860;2023-11-21T01:35:34;88.80;;;23.45;;
3718;SDS011;1875;52.492;6.860;2023-11-21T01:38:03;79.55;;;22.95;;
3718;SDS011;1875;52.492;6.860;2023-11-21T01:40:34;71.78;;;22.13;;
3718;SDS011;1875;52.492;6.860;2023-11-21T01:43:03;86.75;;;24.10;;
3718;SDS011;1875;52.492;6.860;2023-11-21T01:45:30;77.22;;;22.45;;
3718;SDS011;1875;52.492;6.860;2023-11-21T01:48:00;73.78;;;21.98;;
3718;SDS011;1875;52.492;6.860;2023-11-21T01:50:28;79.35;;;22.92;;
3718;SDS011;1875;52.492;6.860;2023-11-21T01:52:56;72.05;;;22.75;;
3718;SDS011;1875;52.492;6.860;2023-11-21T01:55:26;72.65;;;21.58;;
3718;SDS011;1875;52.492;6.860;2023-11-21T01:57:55;75.38;;;22.17;;
3718;SDS011;1875;52.492;6.860;2023-11-21T02:00:24;79.20;;;23.00;;
3718;SDS011;1875;52.492;6.860;2023-11-21T02:02:55;68.85;;;19.95;;
3718;SDS011;1875;52.492;6.860;2023-11-21T02:05:24;74.75;;;22.13;;
3718;SDS011;1875;52.492;6.860;2023-11-21T02:07:52;76.25;;;22.17;;
3718;SDS011;1875;52.492;6.860;2023-11-21T02:10:21;72.47;;;22.05;;
3718;SDS011;1875;52.492;6.860;2023-11-21T02:12:52;83.15;;;23.33;;
3718;SDS011;1875;52.492;6.860;2023-11-21T02:15:20;69.55;;;20.75;;
3718;SDS011;1875;52.492;6.860;2023-11-21T02:17:49;62.85;;;20.90;;
3718;SDS011;1875;52.492;6.860;2023-11-21T02:20:19;73.70;;;21.90;;
3718;SDS011;1875;52.492;6.860;2023-11-21T02:22:52;66.90;;;20.42;;
3718;SDS011;1875;52.492;6.860;2023-11-21T02:25:24;81.75;;;20.75;;
3718;SDS011;1875;52.492;6.860;2023-11-21T02:30:22;65.57;;;18.40;;
3718;SDS011;1875;52.492;6.860;2023-11-21T02:35:20;73.22;;;20.60;;
3718;SDS011;1875;52.492;6.860;2023-11-21T02:37:48;64.53;;;21.02;;
3718;SDS011;1875;52.492;6.860;2023-11-21T02:40:18;78.97;;;20.63;;
3718;SDS011;1875;52.492;6.860;2023-11-21T02:42:48;70.05;;;22.40;;
3718;SDS011;1875;52.492;6.860;2023-11-21T02:45:18;65.47;;;20.20;;
3718;SDS011;1875;52.492;6.860;2023-11-21T02:47:47;68.72;;;21.17;;
3718;SDS011;1875;52.492;6.860;2023-11-21T02:50:16;72.18;;;22.40;;
3718;SDS011;1875;52.492;6.860;2023-11-21T02:52:46;71.47;;;22.98;;
3718;SDS011;1875;52.492;6.860;2023-11-21T02:55:15;71.03;;;20.63;;
3718;SDS011;1875;52.492;6.860;2023-11-21T02:57:45;80.50;;;22.75;;
3718;SDS011;1875;52.492;6.860;2023-11-21T03:00:13;76.35;;;21.90;;
3718;SDS011;1875;52.492;6.860;2023-11-21T03:02:42;75.03;;;22.88;;
3718;SDS011;1875;52.492;6.860;2023-11-21T03:05:10;69.63;;;21.63;;
3718;SDS011;1875;52.492;6.860;2023-11-21T03:07:38;70.43;;;22.35;;
3718;SDS011;1875;52.492;6.860;2023-11-21T03:10:07;69.50;;;22.10;;
3718;SDS011;1875;52.492;6.860;2023-11-21T03:12:37;69.40;;;21.42;;
3718;SDS011;1875;52.492;6.860;2023-11-21T03:15:07;78.28;;;23.77;;
3718;SDS011;1875;52.492;6.860;2023-11-21T03:17:36;78.20;;;23.35;;
3718;SDS011;1875;52.492;6.860;2023-11-21T03:20:05;80.43;;;22.60;;
3718;SDS011;1875;52.492;6.860;2023-11-21T03:22:37;72.53;;;22.77;;
3718;SDS011;1875;52.492;6.860;2023-11-21T03:25:06;57.10;;;18.88;;
3718;SDS011;1875;52.492;6.860;2023-11-21T03:27:37;69.32;;;23.10;;
3718;SDS011;1875;52.492;6.860;2023-11-21T03:30:08;64.38;;;21.42;;
3718;SDS011;1875;52.492;6.860;2023-11-21T03:32:37;80.25;;;24.05;;
3718;SDS011;1875;52.492;6.860;2023-11-21T03:35:06;58.83;;;20.98;;
3718;SDS011;1875;52.492;6.860;2023-11-21T03:37:34;63.78;;;21.45;;
3718;SDS011;1875;52.492;6.860;2023-11-21T03:40:05;61.53;;;21.95;;
3718;SDS011;1875;52.492;6.860;2023-11-21T03:42:35;63.92;;;20.42;;
3718;SDS011;1875;52.492;6.860;2023-11-21T03:45:03;60.45;;;19.58;;
3718;SDS011;1875;52.492;6.860;2023-11-21T03:47:33;69.15;;;20.50;;
3718;SDS011;1875;52.492;6.860;2023-11-21T03:50:01;66.75;;;23.02;;
3718;SDS011;1875;52.492;6.860;2023-11-21T03:52:29;58.53;;;20.77;;
3718;SDS011;1875;52.492;6.860;2023-11-21T03:55:00;64.97;;;20.40;;
3718;SDS011;1875;52.492;6.860;2023-11-21T03:57:28;64.15;;;21.77;;
3718;SDS011;1875;52.492;6.860;2023-11-21T03:59:56;58.72;;;19.95;;
3718;SDS011;1875;52.492;6.860;2023-11-21T04:02:24;59.03;;;19.50;;
3718;SDS011;1875;52.492;6.860;2023-11-21T04:04:54;61.95;;;21.38;;
3718;SDS011;1875;52.492;6.860;2023-11-21T04:07:23;66.25;;;23.08;;
3718;SDS011;1875;52.492;6.860;2023-11-21T04:09:51;57.97;;;20.45;;
3718;SDS011;1875;52.492;6.860;2023-11-21T04:12:20;61.78;;;19.88;;
3718;SDS011;1875;52.492;6.860;2023-11-21T04:14:48;68.60;;;21.23;;
3718;SDS011;1875;52.492;6.860;2023-11-21T04:17:18;67.07;;;21.73;;
3718;SDS011;1875;52.492;6.860;2023-11-21T04:19:46;61.30;;;21.77;;
3718;SDS011;1875;52.492;6.860;2023-11-21T04:22:16;60.17;;;22.42;;
3718;SDS011;1875;52.492;6.860;2023-11-21T04:27:12;64.47;;;21.77;;
3718;SDS011;1875;52.492;6.860;2023-11-21T04:29:41;61.95;;;20.05;;
3718;SDS011;1875;52.492;6.860;2023-11-21T04:32:08;64.20;;;22.73;;
3718;SDS011;1875;52.492;6.860;2023-11-21T04:34:37;64.90;;;20.40;;
3718;SDS011;1875;52.492;6.860;2023-11-21T04:37:05;65.75;;;23.05;;
3718;SDS011;1875;52.492;6.860;2023-11-21T04:39:34;67.97;;;23.58;;
3718;SDS011;1875;52.492;6.860;2023-11-21T04:42:02;63.00;;;21.30;;
3718;SDS011;1875;52.492;6.860;2023-11-21T04:44:31;65.40;;;20.65;;
3718;SDS011;1875;52.492;6.860;2023-11-21T04:46:59;66.55;;;20.08;;
3718;SDS011;1875;52.492;6.860;2023-11-21T04:49:27;64.45;;;21.70;;
3718;SDS011;1875;52.492;6.860;2023-11-21T04:51:55;60.03;;;20.33;;
3718;SDS011;1875;52.492;6.860;2023-11-21T04:54:23;60.65;;;20.10;;
3718;SDS011;1875;52.492;6.860;2023-11-21T04:56:55;68.32;;;22.15;;
3718;SDS011;1875;52.492;6.860;2023-11-21T04:59:23;63.13;;;20.25;;
3718;SDS011;1875;52.492;6.860;2023-11-21T05:01:53;52.72;;;18.65;;
3718;SDS011;1875;52.492;6.860;2023-11-21T05:04:21;61.33;;;20.45;;
3718;SDS011;1875;52.492;6.860;2023-11-21T05:06:50;73.05;;;23.02;;
3718;SDS011;1875;52.492;6.860;2023-11-21T05:09:18;59.38;;;21.40;;
3718;SDS011;1875;52.492;6.860;2023-11-21T05:11:46;68.28;;;21.95;;
3718;SDS011;1875;52.492;6.860;2023-11-21T05:14:15;68.00;;;21.83;;
3718;SDS011;1875;52.492;6.860;2023-11-21T05:19:11;66.40;;;22.08;;
3718;SDS011;1875;52.492;6.860;2023-11-21T05:21:39;66.65;;;23.15;;
3718;SDS011;1875;52.492;6.860;2023-11-21T05:24:07;64.10;;;22.17;;
3718;SDS011;1875;52.492;6.860;2023-11-21T05:26:35;68.18;;;21.38;;
3718;SDS011;1875;52.492;6.860;2023-11-21T05:29:05;57.15;;;21.13;;
3718;SDS011;1875;52.492;6.860;2023-11-21T05:31:34;71.65;;;22.15;;
3718;SDS011;1875;52.492;6.860;2023-11-21T05:34:02;59.80;;;21.75;;
3718;SDS011;1875;52.492;6.860;2023-11-21T05:36:31;60.88;;;20.45;;
3718;SDS011;1875;52.492;6.860;2023-11-21T05:39:00;70.55;;;21.45;;
3718;SDS011;1875;52.492;6.860;2023-11-21T05:41:30;58.42;;;19.90;;
3718;SDS011;1875;52.492;6.860;2023-11-21T05:43:58;57.88;;;19.80;;
3718;SDS011;1875;52.492;6.860;2023-11-21T05:46:26;62.42;;;20.58;;
3718;SDS011;1875;52.492;6.860;2023-11-21T05:48:55;65.25;;;19.67;;
3718;SDS011;1875;52.492;6.860;2023-11-21T05:51:23;94.82;;;23.58;;
3718;SDS011;1875;52.492;6.860;2023-11-21T05:53:51;77.30;;;21.58;;
3718;SDS011;1875;52.492;6.860;2023-11-21T05:56:19;78.93;;;21.02;;
3718;SDS011;1875;52.492;6.860;2023-11-21T05:58:47;78.25;;;20.58;;
3718;SDS011;1875;52.492;6.860;2023-11-21T06:01:15;67.10;;;22.25;;
3718;SDS011;1875;52.492;6.860;2023-11-21T06:03:43;74.30;;;22.65;;
3718;SDS011;1875;52.492;6.860;2023-11-21T06:06:13;89.88;;;22.17;;
3718;SDS011;1875;52.492;6.860;2023-11-21T06:08:41;66.30;;;20.65;;
3718;SDS011;1875;52.492;6.860;2023-11-21T06:11:10;69.72;;;22.30;;
3718;SDS011;1875;52.492;6.860;2023-11-21T06:13:38;75.13;;;21.08;;
3718;SDS011;1875;52.492;6.860;2023-11-21T06:16:06;63.97;;;18.73;;
3718;SDS011;1875;52.492;6.860;2023-11-21T06:18:35;107.70;;;21.95;;
3718;SDS011;1875;52.492;6.860;2023-11-21T06:21:03;73.70;;;19.52;;
3718;SDS011;1875;52.492;6.860;2023-11-21T06:23:32;64.65;;;21.02;;
3718;SDS011;1875;52.492;6.860;2023-11-21T06:26:00;67.00;;;19.80;;
3718;SDS011;1875;52.492;6.860;2023-11-21T06:28:28;55.17;;;21.13;;
3718;SDS011;1875;52.492;6.860;2023-11-21T06:30:57;57.67;;;21.38;;
3718;SDS011;1875;52.492;6.860;2023-11-21T06:33:25;61.60;;;21.52;;
3718;SDS011;1875;52.492;6.860;2023-11-21T06:35:54;55.80;;;19.67;;
3718;SDS011;1875;52.492;6.860;2023-11-21T06:38:22;60.08;;;20.38;;
3718;SDS011;1875;52.492;6.860;2023-11-21T06:40:51;61.53;;;19.65;;
3718;SDS011;1875;52.492;6.860;2023-11-21T06:45:48;54.95;;;21.85;;
3718;SDS011;1875;52.492;6.860;2023-11-21T06:48:16;61.45;;;24.60;;
3718;SDS011;1875;52.492;6.860;2023-11-21T06:50:44;65.07;;;24.33;;
3718;SDS011;1875;52.492;6.860;2023-11-21T06:53:13;64.47;;;23.15;;
3718;SDS011;1875;52.492;6.860;2023-11-21T06:55:41;60.25;;;21.35;;
3718;SDS011;1875;52.492;6.860;2023-11-21T06:58:10;52.22;;;19.55;;
3718;SDS011;1875;52.492;6.860;2023-11-21T07:00:38;57.05;;;21.88;;
3718;SDS011;1875;52.492;6.860;2023-11-21T07:03:06;61.38;;;20.80;;
3718;SDS011;1875;52.492;6.860;2023-11-21T07:05:34;64.70;;;22.33;;
3718;SDS011;1875;52.492;6.860;2023-11-21T07:08:03;61.30;;;19.58;;
3718;SDS011;1875;52.492;6.860;2023-11-21T07:10:32;59.00;;;19.77;;
3718;SDS011;1875;52.492;6.860;2023-11-21T07:13:01;68.43;;;22.85;;
3718;SDS011;1875;52.492;6.860;2023-11-21T07:15:31;54.20;;;19.25;;
3718;SDS011;1875;52.492;6.860;2023-11-21T07:17:59;61.63;;;20.17;;
3718;SDS011;1875;52.492;6.860;2023-11-21T07:20:27;66.32;;;21.15;;
3718;SDS011;1875;52.492;6.860;2023-11-21T07:25:24;60.10;;;19.92;;
3718;SDS011;1875;52.492;6.860;2023-11-21T07:27:52;68.95;;;20.33;;
3718;SDS011;1875;52.492;6.860;2023-11-21T07:30:21;62.67;;;22.30;;
3718;SDS011;1875;52.492;6.860;2023-11-21T07:32:51;57.35;;;19.88;;
3718;SDS011;1875;52.492;6.860;2023-11-21T07:37:47;57.83;;;20.10;;
3718;SDS011;1875;52.492;6.860;2023-11-21T07:40:15;47.17;;;17.50;;
3718;SDS011;1875;52.492;6.860;2023-11-21T07:42:43;50.55;;;17.73;;
3718;SDS011;1875;52.492;6.860;2023-11-21T07:45:11;62.92;;;19.67;;
3718;SDS011;1875;52.492;6.860;2023-11-21T07:47:39;53.42;;;18.23;;
3718;SDS011;1875;52.492;6.860;2023-11-21T07:50:09;54.05;;;16.80;;
3718;SDS011;1875;52.492;6.860;2023-11-21T07:52:38;62.05;;;17.77;;
3718;SDS011;1875;52.492;6.860;2023-11-21T07:55:06;46.42;;;16.23;;
3718;SDS011;1875;52.492;6.860;2023-11-21T07:57:35;45.17;;;15.98;;
3718;SDS011;1875;52.492;6.860;2023-11-21T08:00:03;40.78;;;15.52;;
3718;SDS011;1875;52.492;6.860;2023-11-21T08:02:38;51.22;;;17.10;;
3718;SDS011;1875;52.492;6.860;2023-11-21T08:05:10;44.30;;;17.35;;
3718;SDS011;1875;52.492;6.860;2023-11-21T08:07:50;36.47;;;13.30;;
3718;SDS011;1875;52.492;6.860;2023-11-21T08:10:18;33.92;;;12.82;;
3718;SDS011;1875;52.492;6.860;2023-11-21T08:12:48;34.65;;;15.02;;
3718;SDS011;1875;52.492;6.860;2023-11-21T08:15:16;31.63;;;12.63;;
3718;SDS011;1875;52.492;6.860;2023-11-21T08:17:44;39.95;;;16.52;;
3718;SDS011;1875;52.492;6.860;2023-11-21T08:20:14;39.60;;;14.65;;
3718;SDS011;1875;52.492;6.860;2023-11-21T08:22:44;39.63;;;13.75;;
3718;SDS011;1875;52.492;6.860;2023-11-21T08:25:14;31.90;;;14.90;;
3718;SDS011;1875;52.492;6.860;2023-11-21T08:27:44;23.77;;;9.80;;
3718;SDS011;1875;52.492;6.860;2023-11-21T08:30:12;25.95;;;11.07;;
3718;SDS011;1875;52.492;6.860;2023-11-21T08:32:40;36.45;;;14.50;;
3718;SDS011;1875;52.492;6.860;2023-11-21T08:35:08;36.72;;;14.02;;
3718;SDS011;1875;52.492;6.860;2023-11-21T08:37:40;30.17;;;13.48;;
3718;SDS011;1875;52.492;6.860;2023-11-21T08:40:08;40.60;;;15.15;;
3718;SDS011;1875;52.492;6.860;2023-11-21T08:42:40;42.80;;;15.88;;
3718;SDS011;1875;52.492;6.860;2023-11-21T08:45:09;44.85;;;14.50;;
3718;SDS011;1875;52.492;6.860;2023-11-21T08:47:37;24.00;;;11.43;;
3718;SDS011;1875;52.492;6.860;2023-11-21T08:50:06;28.83;;;12.13;;
3718;SDS011;1875;52.492;6.860;2023-11-21T08:52:35;32.35;;;13.20;;
3718;SDS011;1875;52.492;6.860;2023-11-21T08:55:05;43.50;;;15.68;;
3718;SDS011;1875;52.492;6.860;2023-11-21T08:57:35;43.53;;;13.65;;
3718;SDS011;1875;52.492;6.860;2023-11-21T09:00:03;28.30;;;11.68;;
3718;SDS011;1875;52.492;6.860;2023-11-21T09:02:34;36.00;;;14.15;;
3718;SDS011;1875;52.492;6.860;2023-11-21T09:05:04;24.48;;;9.15;;
3718;SDS011;1875;52.492;6.860;2023-11-21T09:07:33;30.20;;;12.57;;
3718;SDS011;1875;52.492;6.860;2023-11-21T09:10:01;27.65;;;10.23;;
3718;SDS011;1875;52.492;6.860;2023-11-21T09:12:30;40.50;;;13.50;;
3718;SDS011;1875;52.492;6.860;2023-11-21T09:14:59;41.63;;;14.77;;
3718;SDS011;1875;52.492;6.860;2023-11-21T09:17:27;38.85;;;15.60;;
3718;SDS011;1875;52.492;6.860;2023-11-21T09:19:55;42.38;;;15.52;;
3718;SDS011;1875;52.492;6.860;2023-11-21T09:22:23;34.03;;;14.85;;
3718;SDS011;1875;52.492;6.860;2023-11-21T09:24:52;34.80;;;13.18;;
3718;SDS011;1875;52.492;6.860;2023-11-21T09:27:20;27.02;;;10.65;;
3718;SDS011;1875;52.492;6.860;2023-11-21T09:29:49;23.27;;;12.32;;
3718;SDS011;1875;52.492;6.860;2023-11-21T09:34:45;19.00;;;8.68;;
3718;SDS011;1875;52.492;6.860;2023-11-21T09:37:13;16.52;;;5.10;;
3718;SDS011;1875;52.492;6.860;2023-11-21T09:39:41;28.75;;;11.75;;
3718;SDS011;1875;52.492;6.860;2023-11-21T09:42:10;23.40;;;11.10;;
3718;SDS011;1875;52.492;6.860;2023-11-21T09:44:42;22.90;;;11.73;;
3718;SDS011;1875;52.492;6.860;2023-11-21T09:47:15;23.48;;;11.07;;
3718;SDS011;1875;52.492;6.860;2023-11-21T09:52:15;19.08;;;8.65;;
3718;SDS011;1875;52.492;6.860;2023-11-21T09:54:47;28.55;;;10.93;;
3718;SDS011;1875;52.492;6.860;2023-11-21T09:57:15;29.42;;;12.35;;
3718;SDS011;1875;52.492;6.860;2023-11-21T09:59:44;32.58;;;11.75;;
3718;SDS011;1875;52.492;6.860;2023-11-21T10:02:12;24.98;;;11.23;;
3718;SDS011;1875;52.492;6.860;2023-11-21T10:04:42;26.88;;;11.15;;
3718;SDS011;1875;52.492;6.860;2023-11-21T10:12:06;33.00;;;11.43;;
3718;SDS011;1875;52.492;6.860;2023-11-21T10:14:35;28.45;;;11.60;;
3718;SDS011;1875;52.492;6.860;2023-11-21T10:17:04;35.60;;;10.40;;
3718;SDS011;1875;52.492;6.860;2023-11-21T10:19:35;29.48;;;9.43;;
3718;SDS011;1875;52.492;6.860;2023-11-21T10:22:05;33.47;;;12.15;;
3718;SDS011;1875;52.492;6.860;2023-11-21T10:24:35;31.83;;;10.77;;
3718;SDS011;1875;52.492;6.860;2023-11-21T10:27:17;27.13;;;8.98;;
3718;SDS011;1875;52.492;6.860;2023-11-21T10:29:45;22.15;;;9.38;;
3718;SDS011;1875;52.492;6.860;2023-11-21T10:32:13;28.98;;;8.95;;
3718;SDS011;1875;52.492;6.860;2023-11-21T10:34:41;32.25;;;14.15;;
3718;SDS011;1875;52.492;6.860;2023-11-21T10:37:12;25.40;;;12.18;;
3718;SDS011;1875;52.492;6.860;2023-11-21T10:39:40;22.98;;;7.68;;
3718;SDS011;1875;52.492;6.860;2023-11-21T10:42:10;24.52;;;8.32;;
3718;SDS011;1875;52.492;6.860;2023-11-21T10:44:38;29.42;;;9.85;;
3718;SDS011;1875;52.492;6.860;2023-11-21T10:47:08;35.08;;;11.73;;
3718;SDS011;1875;52.492;6.860;2023-11-21T10:49:38;36.53;;;11.30;;
3718;SDS011;1875;52.492;6.860;2023-11-21T10:52:07;26.55;;;8.50;;
3718;SDS011;1875;52.492;6.860;2023-11-21T10:54:39;27.63;;;8.35;;
3718;SDS011;1875;52.492;6.860;2023-11-21T10:59:36;31.20;;;9.98;;
3718;SDS011;1875;52.492;6.860;2023-11-21T11:02:06;27.08;;;8.65;;
3718;SDS011;1875;52.492;6.860;2023-11-21T11:04:40;38.58;;;17.40;;
3718;SDS011;1875;52.492;6.860;2023-11-21T11:07:08;32.47;;;12.93;;
3718;SDS011;1875;52.492;6.860;2023-11-21T11:09:40;27.55;;;10.05;;
3718;SDS011;1875;52.492;6.860;2023-11-21T11:12:08;24.02;;;9.43;;
3718;SDS011;1875;52.492;6.860;2023-11-21T11:14:36;20.15;;;9.60;;
3718;SDS011;1875;52.492;6.860;2023-11-21T11:17:09;25.27;;;10.88;;
3718;SDS011;1875;52.492;6.860;2023-11-21T11:19:38;28.58;;;10.68;;
3718;SDS011;1875;52.492;6.860;2023-11-21T11:22:08;25.98;;;10.40;;
3718;SDS011;1875;52.492;6.860;2023-11-21T11:24:52;30.17;;;11.15;;
3718;SDS011;1875;52.492;6.860;2023-11-21T11:27:34;29.58;;;11.82;;
3718;SDS011;1875;52.492;6.860;2023-11-21T11:30:09;32.53;;;10.05;;
3718;SDS011;1875;52.492;6.860;2023-11-21T11:35:13;19.40;;;9.48;;
3718;SDS011;1875;52.492;6.860;2023-11-21T11:37:45;26.15;;;11.02;;
3718;SDS011;1875;52.492;6.860;2023-11-21T11:40:15;19.85;;;8.13;;
3718;SDS011;1875;52.492;6.860;2023-11-21T11:42:54;26.65;;;9.98;;
3718;SDS011;1875;52.492;6.860;2023-11-21T11:45:24;19.80;;;6.72;;
3718;SDS011;1875;52.492;6.860;2023-11-21T11:47:56;26.33;;;14.23;;
3718;SDS011;1875;52.492;6.860;2023-11-21T11:50:24;24.00;;;10.02;;
3718;SDS011;1875;52.492;6.860;2023-11-21T11:52:53;23.63;;;6.88;;
3718;SDS011;1875;52.492;6.860;2023-11-21T11:55:25;18.70;;;9.77;;
3718;SDS011;1875;52.492;6.860;2023-11-21T11:57:57;17.30;;;9.38;;
3718;SDS011;1875;52.492;6.860;2023-11-21T12:00:33;21.05;;;9.60;;
3718;SDS011;1875;52.492;6.860;2023-11-21T12:03:04;22.60;;;9.45;;
3718;SDS011;1875;52.492;6.860;2023-11-21T12:05:35;18.55;;;9.70;;
3718;SDS011;1875;52.492;6.860;2023-11-21T12:08:06;9.18;;;4.65;;
3718;SDS011;1875;52.492;6.860;2023-11-21T12:10:36;16.70;;;9.00;;
3718;SDS011;1875;52.492;6.860;2023-11-21T12:13:06;13.90;;;6.78;;
3718;SDS011;1875;52.492;6.860;2023-11-21T12:15:36;13.50;;;6.05;;
3718;SDS011;1875;52.492;6.860;2023-11-21T12:18:06;21.88;;;11.40;;
3718;SDS011;1875;52.492;6.860;2023-11-21T12:20:34;17.05;;;8.55;;
3718;SDS011;1875;52.492;6.860;2023-11-21T12:23:06;9.45;;;5.50;;
3718;SDS011;1875;52.492;6.860;2023-11-21T12:25:37;13.80;;;7.15;;
3718;SDS011;1875;52.492;6.860;2023-11-21T12:28:09;12.85;;;6.55;;
3718;SDS011;1875;52.492;6.860;2023-11-21T12:30:38;14.00;;;6.97;;
3718;SDS011;1875;52.492;6.860;2023-11-21T12:33:06;14.80;;;8.50;;
3718;SDS011;1875;52.492;6.860;2023-11-21T12:35:36;17.35;;;6.93;;
3718;SDS011;1875;52.492;6.860;2023-11-21T12:38:05;8.63;;;5.25;;
3718;SDS011;1875;52.492;6.860;2023-11-21T12:40:36;9.55;;;6.00;;
3718;SDS011;1875;52.492;6.860;2023-11-21T12:45:33;14.68;;;7.50;;
3718;SDS011;1875;52.492;6.860;2023-11-21T12:48:02;13.80;;;7.43;;
3718;SDS011;1875;52.492;6.860;2023-11-21T12:50:35;7.13;;;3.78;;
3718;SDS011;1875;52.492;6.860;2023-11-21T12:53:05;9.30;;;5.30;;
3718;SDS011;1875;52.492;6.860;2023-11-21T12:55:38;10.02;;;5.55;;
3718;SDS011;1875;52.492;6.860;2023-11-21T12:58:07;11.50;;;6.10;;
3718;SDS011;1875;52.492;6.860;2023-11-21T13:00:38;8.45;;;4.38;;
3718;SDS011;1875;52.492;6.860;2023-11-21T13:03:09;7.28;;;3.70;;
3718;SDS011;1875;52.492;6.860;2023-11-21T13:05:40;11.95;;;7.07;;
3718;SDS011;1875;52.492;6.860;2023-11-21T13:08:14;10.48;;;5.78;;
3718;SDS011;1875;52.492;6.860;2023-11-21T13:10:49;11.43;;;6.10;;
3718;SDS011;1875;52.492;6.860;2023-11-21T13:13:18;9.10;;;5.10;;
3718;SDS011;1875;52.492;6.860;2023-11-21T13:15:51;9.93;;;6.22;;
3718;SDS011;1875;52.492;6.860;2023-11-21T13:18:22;11.57;;;4.93;;
3718;SDS011;1875;52.492;6.860;2023-11-21T13:20:52;7.38;;;5.00;;
3718;SDS011;1875;52.492;6.860;2023-11-21T13:23:21;9.50;;;6.13;;
3718;SDS011;1875;52.492;6.860;2023-11-21T13:25:50;6.95;;;3.38;;
3718;SDS011;1875;52.492;6.860;2023-11-21T13:28:28;5.45;;;3.08;;
3718;SDS011;1875;52.492;6.860;2023-11-21T13:30:59;14.70;;;6.38;;
3718;SDS011;1875;52.492;6.860;2023-11-21T13:33:36;5.90;;;3.28;;
3718;SDS011;1875;52.492;6.860;2023-11-21T13:36:05;10.48;;;6.13;;
3718;SDS011;1875;52.492;6.860;2023-11-21T13:38:37;10.55;;;5.20;;
3718;SDS011;1875;52.492;6.860;2023-11-21T13:41:11;9.43;;;5.32;;
3718;SDS011;1875;52.492;6.860;2023-11-21T13:43:41;9.88;;;5.65;;
3718;SDS011;1875;52.492;6.860;2023-11-21T13:46:12;7.57;;;4.13;;
3718;SDS011;1875;52.492;6.860;2023-11-21T13:48:44;13.10;;;6.25;;
3718;SDS011;1875;52.492;6.860;2023-11-21T13:51:18;9.25;;;4.35;;
3718;SDS011;1875;52.492;6.860;2023-11-21T13:53:47;11.48;;;5.82;;
3718;SDS011;1875;52.492;6.860;2023-11-21T13:56:18;9.05;;;4.30;;
3718;SDS011;1875;52.492;6.860;2023-11-21T13:58:51;10.43;;;4.80;;
3718;SDS011;1875;52.492;6.860;2023-11-21T14:01:20;11.10;;;5.15;;
3718;SDS011;1875;52.492;6.860;2023-11-21T14:04:12;9.77;;;5.32;;
3718;SDS011;1875;52.492;6.860;2023-11-21T14:06:49;12.18;;;5.82;;
3718;SDS011;1875;52.492;6.860;2023-11-21T14:09:21;11.68;;;5.07;;
3718;SDS011;1875;52.492;6.860;2023-11-21T14:11:54;12.55;;;6.13;;
3718;SDS011;1875;52.492;6.860;2023-11-21T14:14:24;6.75;;;3.83;;
3718;SDS011;1875;52.492;6.860;2023-11-21T14:16:52;12.88;;;5.53;;
3718;SDS011;1875;52.492;6.860;2023-11-21T14:19:22;6.53;;;3.67;;
3718;SDS011;1875;52.492;6.860;2023-11-21T14:21:54;10.80;;;4.80;;
3718;SDS011;1875;52.492;6.860;2023-11-21T14:24:22;8.68;;;4.50;;
3718;SDS011;1875;52.492;6.860;2023-11-21T14:26:51;12.60;;;5.75;;
3718;SDS011;1875;52.492;6.860;2023-11-21T14:29:20;11.68;;;6.43;;
3718;SDS011;1875;52.492;6.860;2023-11-21T14:31:50;14.02;;;6.35;;
3718;SDS011;1875;52.492;6.860;2023-11-21T14:34:22;12.35;;;6.40;;
3718;SDS011;1875;52.492;6.860;2023-11-21T14:36:50;10.25;;;6.03;;
3718;SDS011;1875;52.492;6.860;2023-11-21T14:39:18;11.60;;;5.90;;
3718;SDS011;1875;52.492;6.860;2023-11-21T14:41:50;14.48;;;7.00;;
3718;SDS011;1875;52.492;6.860;2023-11-21T14:44:21;11.32;;;7.88;;
3718;SDS011;1875;52.492;6.860;2023-11-21T14:46:52;14.52;;;8.13;;
3718;SDS011;1875;52.492;6.860;2023-11-21T14:49:24;7.70;;;3.95;;
3718;SDS011;1875;52.492;6.860;2023-11-21T14:51:55;14.55;;;4.55;;
3718;SDS011;1875;52.492;6.860;2023-11-21T14:54:27;13.32;;;6.75;;
3718;SDS011;1875;52.492;6.860;2023-11-21T14:57:07;7.55;;;3.50;;
3718;SDS011;1875;52.492;6.860;2023-11-21T14:59:42;7.82;;;4.22;;
3718;SDS011;1875;52.492;6.860;2023-11-21T15:02:11;7.07;;;4.38;;
3718;SDS011;1875;52.492;6.860;2023-11-21T15:04:42;13.25;;;6.32;;
3718;SDS011;1875;52.492;6.860;2023-11-21T15:07:10;14.18;;;7.15;;
3718;SDS011;1875;52.492;6.860;2023-11-21T15:09:38;15.07;;;8.20;;
3718;SDS011;1875;52.492;6.860;2023-11-21T15:12:08;10.40;;;5.90;;
3718;SDS011;1875;52.492;6.860;2023-11-21T15:14:44;13.07;;;7.22;;
3718;SDS011;1875;52.492;6.860;2023-11-21T15:17:14;10.70;;;5.82;;
3718;SDS011;1875;52.492;6.860;2023-11-21T15:19:49;11.55;;;6.53;;
3718;SDS011;1875;52.492;6.860;2023-11-21T15:22:18;11.43;;;6.03;;
3718;SDS011;1875;52.492;6.860;2023-11-21T15:24:46;10.82;;;6.00;;
3718;SDS011;1875;52.492;6.860;2023-11-21T15:27:16;7.88;;;4.65;;
3718;SDS011;1875;52.492;6.860;2023-11-21T15:32:16;10.23;;;5.10;;
3718;SDS011;1875;52.492;6.860;2023-11-21T15:34:44;7.00;;;4.43;;
3718;SDS011;1875;52.492;6.860;2023-11-21T15:37:13;13.98;;;8.25;;
3718;SDS011;1875;52.492;6.860;2023-11-21T15:39:41;5.07;;;2.92;;
3718;SDS011;1875;52.492;6.860;2023-11-21T15:42:09;9.88;;;5.57;;
3718;SDS011;1875;52.492;6.860;2023-11-21T15:44:38;11.60;;;4.90;;